This is the latest recevied weather packets stored in our database for station/object OK1LPD-6. If no packets are shown the sender has not sent any weather packets the latest 10 day(s).
| Time | Temp. | Humidity | Pressure | Rain* | Wind** | Luminosity | Snow |
|---|---|---|---|---|---|---|---|
| 1778103325 | 13.89° C | 93% | 1006.6 hPa | 1.27 mm | - | - | - |
| 1778102724 | 13.89° C | 92% | 1006.3 hPa | 1.78 mm | - | - | - |
| 1778102146 | 14.44° C | 92% | 1006.4 hPa | 2.03 mm | - | - | - |
| 1778101525 | 14.44° C | 92% | 1006.5 hPa | 4.83 mm | - | - | - |
| 1778100925 | 14.44° C | 93% | 1006.5 hPa | 4.83 mm | - | - | - |
| 1778100344 | 14.44° C | 93% | 1006.5 hPa | 4.32 mm | - | - | - |
| 1778099725 | 14.44° C | 93% | 1006.6 hPa | 3.56 mm | - | - | - |
| 1778099126 | 14.44° C | 91% | 1006.8 hPa | 3.05 mm | - | - | - |
| 1778098547 | 15° C | 89% | 1007.1 hPa | 2.79 mm | - | - | - |
| 1778097925 | 15.56° C | 85% | 1006.7 hPa | 0 mm | - | - | - |
| 1778097325 | 15.56° C | 85% | 1006.1 hPa | 0 mm | - | - | - |
| 1778096744 | 15.56° C | 84% | 1005.6 hPa | 0 mm | - | - | - |
| 1778096126 | 16.11° C | 82% | 1005.3 hPa | 0 mm | - | - | - |
| 1778095526 | 16.11° C | 82% | 1005.5 hPa | 0 mm | - | - | - |
| 1778094947 | 16.11° C | 82% | 1005.5 hPa | 0 mm | - | - | - |
| 1778094326 | 15.56° C | 86% | 1005.3 hPa | 0 mm | - | - | - |
| 1778093725 | 15.56° C | 86% | 1004.9 hPa | 0 mm | - | - | - |
| 1778093145 | 15.56° C | 86% | 1004.9 hPa | 0 mm | - | - | - |
| 1778092526 | 15.56° C | 85% | 1004.8 hPa | 0 mm | - | - | - |
| 1778091927 | 16.11° C | 83% | 1004.7 hPa | 0 mm | - | - | - |
| 1778091346 | 16.67° C | 81% | 1004.3 hPa | 0 mm | - | - | - |
| 1778090727 | 17.22° C | 79% | 1004.3 hPa | 0 mm | - | - | - |
| 1778090127 | 17.22° C | 78% | 1004.3 hPa | 0 mm | - | - | - |
| 1778089539 | 17.22° C | 77% | 1004.3 hPa | 0 mm | - | - | - |
| 1778088927 | 17.78° C | 74% | 1004.2 hPa | 0 mm | - | - | - |
* Rain latest hour (hover to see other rain measurements)
** Current wind speed in m/s (hover to see current wind gust speed)